createdAt,value
2017-02-28T00:00:15.734Z,9.34
2017-02-28T00:01:14.868Z,9.32
2017-02-28T00:02:15.225Z,9.35
2017-02-28T00:03:15.643Z,9.32
2017-02-28T00:04:14.803Z,9.47
2017-02-28T00:05:15.160Z,9.37
2017-02-28T00:06:15.152Z,9.25
2017-02-28T00:07:15.275Z,9.32
2017-02-28T00:08:15.500Z,9.31
2017-02-28T00:09:15.204Z,9.32
2017-02-28T00:10:15.059Z,9.35
2017-02-28T00:11:15.111Z,9.37
2017-02-28T00:12:14.623Z,9.47
2017-02-28T00:13:15.066Z,9.42
2017-02-28T00:14:14.977Z,9.43
2017-02-28T00:15:15.347Z,9.5
2017-02-28T00:16:14.925Z,9.37
2017-02-28T00:17:15.398Z,9.31
2017-02-28T00:18:14.504Z,9.29
2017-02-28T00:19:14.865Z,9.24
2017-02-28T00:20:14.831Z,9.29
2017-02-28T00:21:15.214Z,9.37
2017-02-28T00:22:15.243Z,9.35
2017-02-28T00:23:14.773Z,9.37
2017-02-28T00:24:15.222Z,9.35
2017-02-28T00:25:15.132Z,9.34
2017-02-28T00:26:14.711Z,9.37
2017-02-28T00:27:14.681Z,9.38
2017-02-28T00:28:15.071Z,9.28
2017-02-28T00:29:15.045Z,9.17
2017-02-28T00:30:15.004Z,9.16
2017-02-28T00:31:14.609Z,9.24
2017-02-28T00:32:14.568Z,9.13
2017-02-28T00:33:14.550Z,9.19
2017-02-28T00:34:15.008Z,9.27
2017-02-28T00:35:14.126Z,9.19
2017-02-28T00:36:14.930Z,9.25
2017-02-28T00:37:14.457Z,9.22
2017-02-28T00:38:14.045Z,9.13
2017-02-28T00:39:14.414Z,9.16
2017-02-28T00:40:14.782Z,9.06
2017-02-28T00:41:14.363Z,8.93
2017-02-28T00:42:14.892Z,8.77
2017-02-28T00:43:13.943Z,8.75
2017-02-28T00:44:14.691Z,8.7
2017-02-28T00:45:14.282Z,8.7
2017-02-28T00:46:13.883Z,8.69
2017-02-28T00:47:14.251Z,8.67
2017-02-28T00:48:14.600Z,8.65
2017-02-28T00:49:14.584Z,8.67
2017-02-28T00:50:14.560Z,8.52
2017-02-28T00:51:14.143Z,8.59
2017-02-28T00:52:14.518Z,8.62
2017-02-28T00:53:14.117Z,8.7
2017-02-28T00:54:14.184Z,8.66
2017-02-28T00:55:14.057Z,8.51
2017-02-28T00:56:14.035Z,8.52
2017-02-28T00:57:14.015Z,8.52
2017-02-28T00:58:14.114Z,8.5
2017-02-28T00:59:13.577Z,8.42
2017-02-28T01:00:14.375Z,8.37
2017-02-28T01:01:13.932Z,8.34
2017-02-28T01:02:13.896Z,8.33
2017-02-28T01:03:14.280Z,8.37
2017-02-28T01:04:13.952Z,8.3
2017-02-28T01:05:13.860Z,8.19
2017-02-28T01:06:13.951Z,8.22
2017-02-28T01:07:13.410Z,8.22
2017-02-28T01:08:14.151Z,8.27
2017-02-28T01:09:13.770Z,8.24
2017-02-28T01:10:14.121Z,8.29
2017-02-28T01:11:14.090Z,8.3
2017-02-28T01:12:14.082Z,8.3
2017-02-28T01:13:14.046Z,8.37
2017-02-28T01:14:14.046Z,8.37
2017-02-28T01:15:13.737Z,8.4
2017-02-28T01:16:13.207Z,8.37
2017-02-28T01:17:13.174Z,8.3
2017-02-28T01:18:13.946Z,8.27
2017-02-28T01:19:13.531Z,8.22
2017-02-28T01:20:13.124Z,8.3
2017-02-28T01:21:13.488Z,8.32
2017-02-28T01:22:13.472Z,8.36
2017-02-28T01:23:13.832Z,8.18
2017-02-28T01:24:13.802Z,8.24
2017-02-28T01:25:13.386Z,8.18
2017-02-28T01:26:13.746Z,8.18
2017-02-28T01:27:13.730Z,8.07
2017-02-28T01:28:13.330Z,8.04
2017-02-28T01:29:13.360Z,8.03
2017-02-28T01:30:13.670Z,8.04
2017-02-28T01:31:12.858Z,8.03
2017-02-28T01:32:13.637Z,8.15
2017-02-28T01:33:13.588Z,8.04
2017-02-28T01:34:13.577Z,8.04
2017-02-28T01:35:13.547Z,8.09
2017-02-28T01:36:13.548Z,8.06
2017-02-28T01:37:13.512Z,8.01
2017-02-28T01:38:13.487Z,7.97
2017-02-28T01:39:13.472Z,7.91
2017-02-28T01:40:13.440Z,7.97
2017-02-28T01:41:13.413Z,7.85
2017-02-28T01:42:12.996Z,7.88
2017-02-28T01:43:12.973Z,7.81
2017-02-28T01:44:13.333Z,7.76
2017-02-28T01:45:13.321Z,7.9
2017-02-28T01:46:12.930Z,7.86
2017-02-28T01:47:12.489Z,7.88
2017-02-28T01:48:12.469Z,7.78
2017-02-28T01:49:12.448Z,7.79
2017-02-28T01:50:12.817Z,7.63
2017-02-28T01:51:13.169Z,7.75
2017-02-28T01:52:12.797Z,7.75
2017-02-28T01:53:12.373Z,7.76
2017-02-28T01:54:13.140Z,7.75
2017-02-28T01:55:13.087Z,7.76
2017-02-28T01:56:13.043Z,7.72
2017-02-28T01:57:12.695Z,7.82
2017-02-28T01:58:13.037Z,7.88
2017-02-28T01:59:12.609Z,7.83
2017-02-28T02:00:12.582Z,7.99
2017-02-28T02:01:12.582Z,7.75
2017-02-28T02:02:12.540Z,7.7
2017-02-28T02:03:12.911Z,7.7
2017-02-28T02:04:12.878Z,7.73
2017-02-28T02:05:12.073Z,7.73
2017-02-28T02:06:12.450Z,7.76
2017-02-28T02:07:12.809Z,7.75
2017-02-28T02:08:12.408Z,7.63
2017-02-28T02:09:12.757Z,7.68
2017-02-28T02:10:12.756Z,7.75
2017-02-28T02:11:12.317Z,7.79
2017-02-28T02:12:12.296Z,7.72
2017-02-28T02:13:11.972Z,7.79
2017-02-28T02:14:12.255Z,7.79
2017-02-28T02:15:12.263Z,7.78
2017-02-28T02:16:11.833Z,7.81
2017-02-28T02:17:12.212Z,7.67
2017-02-28T02:18:12.173Z,7.72
2017-02-28T02:19:11.830Z,7.7
2017-02-28T02:20:12.520Z,7.72
2017-02-28T02:21:12.610Z,7.72
2017-02-28T02:22:12.470Z,7.62
2017-02-28T02:23:12.181Z,7.68
2017-02-28T02:24:12.418Z,7.75
2017-02-28T02:25:12.539Z,7.68
2017-02-28T02:26:11.994Z,7.62
2017-02-28T02:27:12.087Z,7.72
2017-02-28T02:28:12.307Z,7.72
2017-02-28T02:29:11.536Z,7.72
2017-02-28T02:30:12.295Z,7.63
2017-02-28T02:31:12.264Z,7.72
2017-02-28T02:32:11.477Z,7.63
2017-02-28T02:33:12.323Z,7.72
2017-02-28T02:34:11.875Z,7.72
2017-02-28T02:35:11.412Z,7.64
2017-02-28T02:36:12.152Z,7.67
2017-02-28T02:37:11.747Z,7.44
2017-02-28T02:38:12.110Z,7.42
2017-02-28T02:39:12.089Z,7.48
2017-02-28T02:40:12.139Z,7.47
2017-02-28T02:41:11.299Z,7.23
2017-02-28T02:42:11.627Z,7.23
2017-02-28T02:43:11.608Z,7.23
2017-02-28T02:44:12.005Z,7.21
2017-02-28T02:45:11.606Z,7.19
2017-02-28T02:46:11.917Z,7.14
2017-02-28T02:47:11.497Z,7.12
2017-02-28T02:48:11.485Z,7.02
2017-02-28T02:49:11.846Z,6.96
2017-02-28T02:50:11.833Z,6.94
2017-02-28T02:51:11.791Z,7.04
2017-02-28T02:52:11.384Z,7.01
2017-02-28T02:53:11.774Z,6.98
2017-02-28T02:54:11.349Z,6.84
2017-02-28T02:55:11.771Z,6.8
2017-02-28T02:56:11.382Z,6.77
2017-02-28T02:57:10.880Z,6.94
2017-02-28T02:58:11.759Z,6.93
2017-02-28T02:59:11.739Z,6.94
2017-02-28T03:00:11.219Z,6.86
2017-02-28T03:01:11.180Z,6.8
2017-02-28T03:02:11.537Z,6.69
2017-02-28T03:03:11.168Z,6.81
2017-02-28T03:04:11.497Z,6.75
2017-02-28T03:05:11.086Z,6.69
2017-02-28T03:06:11.486Z,6.6
2017-02-28T03:07:10.645Z,6.45
2017-02-28T03:08:11.004Z,6.65
2017-02-28T03:09:10.595Z,6.55
2017-02-28T03:10:11.344Z,6.59
2017-02-28T03:11:11.331Z,6.57
2017-02-28T03:12:11.312Z,6.52
2017-02-28T03:13:10.893Z,6.68
2017-02-28T03:14:10.881Z,6.65
2017-02-28T03:15:11.260Z,6.57
2017-02-28T03:16:11.222Z,6.6
2017-02-28T03:17:11.180Z,6.52
2017-02-28T03:18:10.769Z,6.6
2017-02-28T03:19:11.148Z,6.7
2017-02-28T03:20:10.748Z,6.62
2017-02-28T03:21:10.307Z,6.57
2017-02-28T03:22:10.666Z,6.48
2017-02-28T03:23:11.034Z,6.52
2017-02-28T03:24:10.629Z,6.5
2017-02-28T03:25:10.615Z,6.41
2017-02-28T03:26:10.585Z,6.44
2017-02-28T03:27:10.943Z,6.4
2017-02-28T03:28:10.533Z,6.32
2017-02-28T03:29:10.912Z,6.45
2017-02-28T03:30:10.492Z,6.44
2017-02-28T03:31:10.854Z,6.52
2017-02-28T03:32:10.423Z,6.54
2017-02-28T03:33:10.810Z,6.45
2017-02-28T03:34:10.770Z,6.37
2017-02-28T03:35:10.358Z,6.37
2017-02-28T03:36:10.728Z,6.35
2017-02-28T03:37:10.335Z,6.44
2017-02-28T03:38:10.286Z,6.4
2017-02-28T03:39:09.908Z,6.45
2017-02-28T03:40:10.235Z,6.43
2017-02-28T03:41:10.214Z,6.43
2017-02-28T03:42:10.190Z,6.48
2017-02-28T03:43:10.177Z,6.36
2017-02-28T03:44:10.194Z,6.37
2017-02-28T03:45:10.513Z,6.37
2017-02-28T03:46:10.099Z,6.41
2017-02-28T03:47:09.683Z,6.3
2017-02-28T03:48:10.109Z,6.29
2017-02-28T03:49:10.020Z,6.25
2017-02-28T03:50:09.660Z,6.36
2017-02-28T03:51:10.356Z,6.22
2017-02-28T03:52:10.329Z,6.22
2017-02-28T03:53:09.944Z,6.3
2017-02-28T03:54:09.516Z,6.18
2017-02-28T03:55:09.487Z,6.27
2017-02-28T03:56:09.873Z,6.21
2017-02-28T03:57:10.309Z,6.22
2017-02-28T03:58:09.920Z,6.3
2017-02-28T03:59:09.855Z,6.3
2017-02-28T04:00:09.837Z,6.32
2017-02-28T04:01:09.764Z,6.45
2017-02-28T04:02:10.105Z,6.37
2017-02-28T04:03:10.131Z,6.4
2017-02-28T04:04:09.712Z,6.35
2017-02-28T04:05:09.628Z,6.37
2017-02-28T04:06:09.240Z,6.33
2017-02-28T04:07:10.072Z,6.29
2017-02-28T04:08:09.570Z,6.26
2017-02-28T04:09:09.161Z,6.4
2017-02-28T04:10:09.517Z,6.43
2017-02-28T04:11:09.101Z,6.36
2017-02-28T04:12:09.190Z,6.35
2017-02-28T04:13:09.930Z,6.37
2017-02-28T04:14:09.028Z,6.43
2017-02-28T04:15:09.887Z,6.43
2017-02-28T04:16:09.385Z,6.32
2017-02-28T04:17:09.817Z,6.37
2017-02-28T04:18:09.327Z,6.37
2017-02-28T04:19:09.305Z,6.36
2017-02-28T04:20:09.272Z,6.45
2017-02-28T04:21:08.865Z,6.35
2017-02-28T04:22:09.664Z,6.33
2017-02-28T04:23:09.257Z,6.37
2017-02-28T04:24:09.564Z,6.43
2017-02-28T04:25:08.764Z,6.45
2017-02-28T04:26:09.512Z,6.35
2017-02-28T04:27:09.111Z,6.44
2017-02-28T04:28:09.081Z,6.27
2017-02-28T04:29:08.661Z,6.44
2017-02-28T04:30:09.042Z,6.35
2017-02-28T04:31:09.645Z,6.35
2017-02-28T04:32:08.986Z,6.37
2017-02-28T04:33:09.480Z,6.41
2017-02-28T04:34:09.397Z,6.41
2017-02-28T04:35:09.306Z,6.43
2017-02-28T04:36:09.274Z,6.43
2017-02-28T04:37:08.874Z,6.32
2017-02-28T04:38:09.226Z,6.4
2017-02-28T04:39:09.217Z,6.29
2017-02-28T04:40:09.255Z,6.4
2017-02-28T04:41:09.176Z,6.41
2017-02-28T04:42:08.355Z,6.45
2017-02-28T04:43:08.719Z,6.41
2017-02-28T04:44:09.082Z,6.55
2017-02-28T04:45:09.064Z,6.63
2017-02-28T04:46:08.652Z,6.66
2017-02-28T04:47:09.003Z,6.51
2017-02-28T04:48:08.591Z,6.59
2017-02-28T04:49:08.571Z,6.51
2017-02-28T04:50:08.568Z,6.45
2017-02-28T04:51:08.910Z,6.54
2017-02-28T04:52:08.512Z,6.59
2017-02-28T04:53:08.880Z,6.57
2017-02-28T04:54:08.849Z,6.69
2017-02-28T04:55:08.438Z,6.73
2017-02-28T04:56:08.411Z,6.63
2017-02-28T04:57:08.376Z,6.57
2017-02-28T04:58:07.978Z,6.66
2017-02-28T04:59:08.727Z,6.57
2017-02-28T05:00:07.905Z,6.63
2017-02-28T05:01:08.666Z,6.6
2017-02-28T05:02:08.635Z,6.57
2017-02-28T05:03:08.235Z,6.69
2017-02-28T05:04:08.233Z,6.7
2017-02-28T05:05:07.802Z,6.7
2017-02-28T05:06:08.148Z,6.68
2017-02-28T05:07:08.523Z,6.7
2017-02-28T05:08:08.108Z,6.69
2017-02-28T05:09:08.083Z,6.75
2017-02-28T05:10:08.061Z,6.78
2017-02-28T05:11:07.661Z,6.7
2017-02-28T05:12:08.020Z,6.77
2017-02-28T05:13:08.440Z,6.83
2017-02-28T05:14:08.369Z,6.77
2017-02-28T05:15:08.345Z,6.7
2017-02-28T05:16:07.544Z,6.72
2017-02-28T05:17:07.949Z,6.7
2017-02-28T05:18:07.538Z,6.75
2017-02-28T05:19:07.839Z,6.83
2017-02-28T05:20:07.848Z,6.72
2017-02-28T05:21:07.802Z,6.7
2017-02-28T05:22:08.203Z,6.83
2017-02-28T05:23:07.465Z,6.8
2017-02-28T05:24:08.161Z,6.7
2017-02-28T05:25:07.775Z,6.72
2017-02-28T05:26:07.703Z,6.73
2017-02-28T05:27:07.283Z,6.72
2017-02-28T05:28:07.704Z,6.8
2017-02-28T05:29:07.262Z,6.77
2017-02-28T05:30:07.961Z,6.68
2017-02-28T05:31:07.572Z,6.66
2017-02-28T05:32:07.538Z,6.69
2017-02-28T05:33:07.610Z,6.78
2017-02-28T05:34:07.488Z,6.63
2017-02-28T05:35:07.477Z,6.63
2017-02-28T05:36:07.947Z,6.7
2017-02-28T05:37:07.441Z,6.57
2017-02-28T05:38:07.438Z,6.72
2017-02-28T05:39:07.397Z,6.73
2017-02-28T05:40:07.344Z,6.72
2017-02-28T05:41:07.734Z,6.75
2017-02-28T05:42:07.686Z,6.66
2017-02-28T05:43:06.885Z,6.68
2017-02-28T05:44:07.250Z,6.77
2017-02-28T05:45:07.226Z,6.7
2017-02-28T05:46:06.814Z,6.66
2017-02-28T05:47:07.565Z,6.73
2017-02-28T05:48:07.541Z,6.72
2017-02-28T05:49:07.514Z,6.78
2017-02-28T05:50:07.523Z,6.78
2017-02-28T05:51:07.101Z,6.73
2017-02-28T05:52:07.162Z,6.77
2017-02-28T05:53:06.660Z,6.72
2017-02-28T05:54:07.000Z,6.81
2017-02-28T05:55:07.389Z,6.68
2017-02-28T05:56:06.570Z,6.7
2017-02-28T05:57:06.569Z,6.8
2017-02-28T05:58:06.903Z,6.81
2017-02-28T05:59:06.892Z,6.69
2017-02-28T06:00:06.857Z,6.75
2017-02-28T06:01:07.280Z,6.81
2017-02-28T06:02:07.208Z,6.81
2017-02-28T06:03:06.805Z,6.73
2017-02-28T06:04:06.765Z,6.8
2017-02-28T06:05:07.217Z,6.78
2017-02-28T06:06:06.713Z,6.83
2017-02-28T06:07:06.312Z,6.9
2017-02-28T06:08:06.672Z,6.88
2017-02-28T06:09:06.273Z,6.9
2017-02-28T06:10:06.638Z,6.88
2017-02-28T06:11:06.593Z,6.91
2017-02-28T06:12:06.577Z,6.81
2017-02-28T06:13:06.990Z,6.9
2017-02-28T06:14:06.528Z,6.91
2017-02-28T06:15:06.896Z,6.81
2017-02-28T06:16:06.878Z,7.02
2017-02-28T06:17:06.478Z,6.93
2017-02-28T06:18:06.816Z,6.9
2017-02-28T06:19:06.407Z,6.94
2017-02-28T06:20:06.379Z,6.81
2017-02-28T06:21:06.377Z,6.96
2017-02-28T06:22:06.326Z,6.94
2017-02-28T06:23:05.976Z,7.04
2017-02-28T06:24:06.675Z,7.01
2017-02-28T06:25:06.272Z,7.05
2017-02-28T06:26:06.632Z,7.05
2017-02-28T06:27:06.223Z,7.06
2017-02-28T06:28:06.188Z,7.09
2017-02-28T06:29:06.562Z,6.91
2017-02-28T06:30:06.578Z,6.94
2017-02-28T06:31:06.501Z,6.93
2017-02-28T06:32:05.717Z,7.05
2017-02-28T06:33:06.062Z,7.05
2017-02-28T06:34:06.429Z,7.06
2017-02-28T06:35:06.040Z,6.96
2017-02-28T06:36:06.386Z,7.01
2017-02-28T06:37:05.976Z,6.99
2017-02-28T06:38:06.357Z,7.08
2017-02-28T06:39:05.922Z,7.06
2017-02-28T06:40:06.294Z,7.08
2017-02-28T06:41:06.255Z,7.06
2017-02-28T06:42:06.245Z,7.11
2017-02-28T06:43:06.213Z,7.05
2017-02-28T06:44:05.413Z,7.02
2017-02-28T06:45:05.784Z,7.05
2017-02-28T06:46:05.753Z,7.05
2017-02-28T06:47:05.743Z,7.12
2017-02-28T06:48:05.330Z,7.11
2017-02-28T06:49:06.075Z,7.17
2017-02-28T06:50:06.060Z,7.06
2017-02-28T06:51:06.020Z,7.17
2017-02-28T06:52:05.619Z,7.11
2017-02-28T06:53:05.989Z,7.14
2017-02-28T06:54:05.178Z,7.19
2017-02-28T06:55:05.548Z,7.02
2017-02-28T06:56:05.136Z,7.09
2017-02-28T06:57:05.497Z,7.21
2017-02-28T06:58:05.849Z,7.14
2017-02-28T06:59:05.836Z,7.06
2017-02-28T07:00:05.035Z,7.12
2017-02-28T07:01:05.425Z,7.16
2017-02-28T07:02:05.767Z,7.16
2017-02-28T07:03:05.738Z,7.19
2017-02-28T07:04:04.941Z,7.31
2017-02-28T07:05:05.316Z,7.44
2017-02-28T07:06:05.269Z,7.44
2017-02-28T07:07:05.255Z,7.42
2017-02-28T07:08:05.231Z,7.37
2017-02-28T07:09:05.592Z,7.23
2017-02-28T07:10:05.580Z,7.2
2017-02-28T07:11:05.169Z,7.27
2017-02-28T07:12:04.735Z,7.19
2017-02-28T07:13:05.500Z,7.26
2017-02-28T07:14:05.089Z,7.12
2017-02-28T07:15:05.469Z,7.23
2017-02-28T07:16:05.057Z,7.11
2017-02-28T07:17:05.017Z,7.2
2017-02-28T07:18:04.995Z,7.21
2017-02-28T07:19:04.961Z,7.23
2017-02-28T07:20:05.364Z,7.09
2017-02-28T07:21:04.915Z,7.14
2017-02-28T07:22:05.283Z,7.19
2017-02-28T07:23:04.873Z,7.09
2017-02-28T07:24:04.467Z,7.05
2017-02-28T07:25:04.444Z,7.08
2017-02-28T07:26:04.411Z,7.08
2017-02-28T07:27:04.781Z,7.08
2017-02-28T07:28:04.760Z,7.06
2017-02-28T07:29:04.739Z,7.11
2017-02-28T07:30:04.698Z,7.08
2017-02-28T07:31:04.688Z,6.94
2017-02-28T07:32:04.657Z,6.93
2017-02-28T07:33:04.262Z,7.05
2017-02-28T07:34:04.611Z,7.05
2017-02-28T07:35:04.607Z,7.04
2017-02-28T07:36:04.569Z,7.01
2017-02-28T07:37:04.556Z,7.08
2017-02-28T07:38:04.534Z,7.01
2017-02-28T07:39:04.874Z,6.93
2017-02-28T07:40:04.475Z,6.96
2017-02-28T07:41:04.830Z,6.93
2017-02-28T07:42:04.791Z,6.93
2017-02-28T07:43:04.391Z,6.9
2017-02-28T07:44:04.751Z,7.14
2017-02-28T07:45:04.384Z,7.14
2017-02-28T07:46:03.941Z,7.17
2017-02-28T07:47:04.291Z,7.21
2017-02-28T07:48:04.269Z,7.2
2017-02-28T07:49:04.256Z,7.31
2017-02-28T07:50:04.218Z,7.3
2017-02-28T07:51:04.213Z,7.42
2017-02-28T07:52:04.577Z,7.41
2017-02-28T07:53:04.166Z,7.27
2017-02-28T07:54:04.135Z,7.24
2017-02-28T07:55:04.484Z,7.14
2017-02-28T07:56:04.453Z,7.2
2017-02-28T07:57:04.444Z,7.19
2017-02-28T07:58:04.047Z,7.11
2017-02-28T07:59:04.402Z,7.17
2017-02-28T08:00:03.982Z,7.14
2017-02-28T08:01:03.941Z,7.11
2017-02-28T08:02:03.970Z,7.14
2017-02-28T08:03:04.010Z,7.23
2017-02-28T08:04:03.879Z,7.19
2017-02-28T08:05:03.859Z,7.2
2017-02-28T08:06:03.949Z,7.27
2017-02-28T08:07:03.867Z,7.27
2017-02-28T08:08:03.797Z,7.21
2017-02-28T08:09:03.823Z,7.26
2017-02-28T08:10:03.736Z,7.23
2017-02-28T08:11:03.725Z,7.2
2017-02-28T08:12:03.824Z,7.21
2017-02-28T08:13:03.774Z,7.26
2017-02-28T08:14:04.034Z,7.24
2017-02-28T08:15:03.729Z,7.39
2017-02-28T08:16:03.590Z,7.41
2017-02-28T08:17:03.972Z,7.45
2017-02-28T08:18:03.958Z,7.41
2017-02-28T08:19:03.525Z,7.62
2017-02-28T08:20:03.511Z,7.73
2017-02-28T08:21:03.563Z,7.73
2017-02-28T08:22:03.458Z,7.7
2017-02-28T08:23:03.828Z,7.73
2017-02-28T08:24:03.807Z,7.75
2017-02-28T08:25:03.797Z,7.48
2017-02-28T08:26:03.755Z,7.44
2017-02-28T08:27:03.356Z,7.6
2017-02-28T08:28:03.725Z,7.7
2017-02-28T08:29:03.310Z,7.68
2017-02-28T08:30:03.284Z,7.53
2017-02-28T08:31:03.644Z,7.42
2017-02-28T08:32:03.235Z,7.45
2017-02-28T08:33:03.615Z,7.42
2017-02-28T08:34:03.189Z,7.42
2017-02-28T08:35:03.549Z,7.39
2017-02-28T08:36:03.521Z,7.47
2017-02-28T08:37:03.509Z,7.45
2017-02-28T08:38:03.090Z,7.26
2017-02-28T08:39:02.680Z,7.42
2017-02-28T08:40:03.029Z,7.23
2017-02-28T08:41:03.017Z,7.39
2017-02-28T08:42:03.373Z,7.38
2017-02-28T08:43:02.978Z,7.45
2017-02-28T08:44:02.942Z,7.41
2017-02-28T08:45:02.919Z,7.34
2017-02-28T08:46:02.905Z,7.24
2017-02-28T08:47:03.254Z,7.29
2017-02-28T08:48:03.232Z,7.39
2017-02-28T08:49:03.219Z,7.26
2017-02-28T08:50:02.411Z,7.31
2017-02-28T08:51:02.784Z,7.24
2017-02-28T08:52:03.144Z,7.27
2017-02-28T08:53:02.729Z,7.19
2017-02-28T08:54:03.089Z,7.27
2017-02-28T08:55:02.681Z,7.17
2017-02-28T08:56:02.661Z,7.16
2017-02-28T08:57:02.690Z,7.11
2017-02-28T08:58:03.006Z,7.14
2017-02-28T08:59:03.066Z,7.12
2017-02-28T09:00:02.577Z,7.19
2017-02-28T09:01:02.577Z,7.16
2017-02-28T09:02:02.515Z,7.23
2017-02-28T09:03:02.116Z,7.2
2017-02-28T09:04:02.487Z,7.3
2017-02-28T09:05:02.835Z,7.23
2017-02-28T09:06:02.797Z,7.27
2017-02-28T09:07:02.044Z,7.2
2017-02-28T09:08:02.393Z,7.16
2017-02-28T09:09:02.801Z,7.21
2017-02-28T09:10:02.715Z,7.21
2017-02-28T09:11:02.758Z,7.24
2017-02-28T09:12:02.282Z,7.29
2017-02-28T09:13:02.741Z,7.23
2017-02-28T09:14:02.229Z,7.23
2017-02-28T09:15:02.610Z,7.14
2017-02-28T09:16:02.592Z,7.12
2017-02-28T09:17:01.807Z,7.19
2017-02-28T09:18:01.740Z,7.19
2017-02-28T09:19:02.191Z,7.16
2017-02-28T09:20:01.707Z,7.12
2017-02-28T09:21:02.558Z,7.23
2017-02-28T09:22:02.496Z,7.08
2017-02-28T09:23:02.406Z,7.14
2017-02-28T09:24:01.978Z,7.14
2017-02-28T09:25:01.979Z,7.19
2017-02-28T09:26:02.345Z,7.23
2017-02-28T09:27:02.427Z,7.38
2017-02-28T09:28:02.273Z,7.44
2017-02-28T09:29:02.253Z,7.38
2017-02-28T09:30:02.324Z,7.39
2017-02-28T09:31:01.829Z,7.72
2017-02-28T09:32:02.283Z,7.79
2017-02-28T09:33:01.811Z,7.9
2017-02-28T09:34:01.743Z,7.72
2017-02-28T09:35:01.751Z,7.75
2017-02-28T09:36:02.163Z,7.85
2017-02-28T09:37:01.711Z,7.88
2017-02-28T09:38:02.110Z,7.79
2017-02-28T09:39:01.257Z,7.79
2017-02-28T09:40:02.098Z,7.93
2017-02-28T09:41:02.005Z,7.81
2017-02-28T09:42:01.959Z,7.79
2017-02-28T09:43:01.586Z,7.88
2017-02-28T09:44:01.949Z,7.83
2017-02-28T09:45:01.497Z,7.9
2017-02-28T09:46:01.105Z,7.82
2017-02-28T09:47:01.859Z,7.88
2017-02-28T09:48:01.442Z,8.16
2017-02-28T09:49:01.813Z,8.47
2017-02-28T09:50:01.784Z,8.65
2017-02-28T09:51:01.773Z,8.47
2017-02-28T09:52:01.742Z,8.48
2017-02-28T09:53:01.320Z,8.34
2017-02-28T09:54:01.699Z,8.88
2017-02-28T09:55:01.274Z,9.09
2017-02-28T09:56:01.662Z,9.24
2017-02-28T09:57:01.635Z,9.31
2017-02-28T09:58:00.815Z,9.64
2017-02-28T09:59:01.594Z,9.46
2017-02-28T10:00:01.189Z,9.27
2017-02-28T10:01:01.547Z,9.17
2017-02-28T10:02:01.516Z,9.03
2017-02-28T10:03:01.596Z,8.87
2017-02-28T10:04:00.704Z,8.7
2017-02-28T10:05:00.695Z,8.67
2017-02-28T10:06:01.032Z,8.69
2017-02-28T10:07:01.464Z,8.48
2017-02-28T10:08:01.416Z,8.37
2017-02-28T10:09:01.005Z,8.33
2017-02-28T10:10:00.962Z,8.34
2017-02-28T10:11:01.333Z,8.34
2017-02-28T10:12:01.301Z,8.43
2017-02-28T10:13:00.905Z,8.47
2017-02-28T10:14:01.300Z,8.34
2017-02-28T10:15:00.869Z,8.32
2017-02-28T10:16:00.848Z,8.37
2017-02-28T10:17:00.812Z,8.4
2017-02-28T10:18:00.808Z,8.36
2017-02-28T10:19:00.781Z,8.4
2017-02-28T10:20:00.764Z,8.8
2017-02-28T10:21:00.343Z,9.16
2017-02-28T10:22:00.716Z,9.34
2017-02-28T10:23:01.075Z,9.34
2017-02-28T10:24:00.274Z,9.42
2017-02-28T10:25:01.019Z,9.42
2017-02-28T10:26:00.632Z,9.65
2017-02-28T10:27:00.593Z,9.65
2017-02-28T10:28:00.596Z,9.35
2017-02-28T10:29:00.553Z,9.4
2017-02-28T10:30:00.923Z,9.46
2017-02-28T10:31:00.499Z,9.46
2017-02-28T10:32:00.500Z,8.9
2017-02-28T10:33:00.481Z,8.9
2017-02-28T10:34:00.832Z,8.8
2017-02-28T10:35:00.830Z,8.65
2017-02-28T10:36:00.408Z,8.65
2017-02-28T10:37:00.389Z,8.55
2017-02-28T10:38:00.758Z,8.55
2017-02-28T10:39:00.736Z,8.57
2017-02-28T10:39:59.925Z,8.61
2017-02-28T10:40:59.932Z,8.67
2017-02-28T10:42:00.645Z,8.65
2017-02-28T10:43:00.242Z,8.76
2017-02-28T10:44:00.596Z,8.54
2017-02-28T10:45:00.198Z,8.51
2017-02-28T10:46:00.194Z,8.66
2017-02-28T10:47:00.564Z,8.66
2017-02-28T10:48:00.512Z,8.73
2017-02-28T10:49:00.478Z,8.7
2017-02-28T10:50:00.497Z,8.67
2017-02-28T10:51:00.070Z,8.67
2017-02-28T10:51:59.651Z,8.62
2017-02-28T10:52:59.634Z,8.79
2017-02-28T10:54:00.098Z,8.91
2017-02-28T10:54:59.960Z,8.98
2017-02-28T10:56:00.340Z,9
2017-02-28T10:57:00.357Z,8.87
2017-02-28T10:57:59.913Z,8.9
2017-02-28T10:58:59.887Z,9.03
2017-02-28T10:59:59.873Z,9.09
2017-02-28T11:00:59.855Z,8.88
2017-02-28T11:02:00.205Z,8.94
2017-02-28T11:03:00.225Z,8.87
2017-02-28T11:03:59.793Z,9.02
2017-02-28T11:04:59.757Z,9.03
2017-02-28T11:06:00.113Z,9.17
2017-02-28T11:06:59.752Z,9.35
2017-02-28T11:07:59.682Z,9.25
2017-02-28T11:08:59.674Z,9.24
2017-02-28T11:09:59.641Z,9.38
2017-02-28T11:10:59.628Z,9.93
2017-02-28T11:11:59.588Z,9.9
2017-02-28T11:12:59.971Z,9.92
2017-02-28T11:13:59.569Z,9.85
2017-02-28T11:14:59.591Z,9.52
2017-02-28T11:15:59.898Z,9.45
2017-02-28T11:16:59.538Z,9.32
2017-02-28T11:17:59.479Z,9.29
2017-02-28T11:18:59.892Z,9.29
2017-02-28T11:19:59.428Z,9.17
2017-02-28T11:20:59.803Z,9.06
2017-02-28T11:21:59.377Z,8.98
2017-02-28T11:22:59.764Z,9.05
2017-02-28T11:23:59.734Z,9.05
2017-02-28T11:24:59.324Z,8.98
2017-02-28T11:25:59.302Z,8.9
2017-02-28T11:26:59.684Z,8.88
2017-02-28T11:27:59.641Z,8.85
2017-02-28T11:28:59.642Z,8.88
2017-02-28T11:29:59.611Z,8.97
2017-02-28T11:30:59.570Z,8.97
2017-02-28T11:31:59.176Z,9
2017-02-28T11:32:59.527Z,9.03
2017-02-28T11:33:59.123Z,9.13
2017-02-28T11:34:59.109Z,9.21
2017-02-28T11:35:59.103Z,8.97
2017-02-28T11:36:59.065Z,8.83
2017-02-28T11:37:59.039Z,8.91
2017-02-28T11:38:59.017Z,9.06
2017-02-28T11:39:59.038Z,9.13
2017-02-28T11:40:59.358Z,9.32
2017-02-28T11:41:58.556Z,9.32
2017-02-28T11:42:58.934Z,9.46
2017-02-28T11:43:58.914Z,9.46
2017-02-28T11:44:59.274Z,9.46
2017-02-28T11:45:58.880Z,9.72
2017-02-28T11:46:59.242Z,10
2017-02-28T11:47:59.231Z,10.3
2017-02-28T11:48:58.793Z,10.34
2017-02-28T11:49:58.792Z,11
2017-02-28T11:50:58.759Z,11.32
2017-02-28T11:51:58.741Z,11.48
2017-02-28T11:52:58.329Z,11.11
2017-02-28T11:53:59.105Z,10.44
2017-02-28T11:54:59.068Z,10.36
2017-02-28T11:55:58.661Z,10.21
2017-02-28T11:56:58.636Z,10.57
2017-02-28T11:57:59.077Z,10.4
2017-02-28T11:58:58.989Z,10.53
2017-02-28T11:59:59.085Z,10.95
2017-02-28T12:00:58.949Z,11.47
2017-02-28T12:01:58.264Z,11.05
2017-02-28T12:02:58.535Z,10.77
2017-02-28T12:03:58.954Z,10.52
2017-02-28T12:04:58.477Z,10.4
2017-02-28T12:05:58.544Z,10.29
2017-02-28T12:06:58.462Z,10.34
2017-02-28T12:07:58.864Z,10.28
2017-02-28T12:08:58.781Z,10.03
2017-02-28T12:09:58.770Z,10.15
2017-02-28T12:10:58.749Z,10.23
2017-02-28T12:11:58.433Z,10.25
2017-02-28T12:12:58.708Z,10.37
2017-02-28T12:13:58.808Z,10.56
2017-02-28T12:14:58.665Z,10.53
2017-02-28T12:15:58.752Z,10.44
2017-02-28T12:16:58.647Z,10.47
2017-02-28T12:17:58.715Z,10.69
2017-02-28T12:18:58.196Z,10.59
2017-02-28T12:19:57.924Z,10.8
2017-02-28T12:20:58.220Z,10.55
2017-02-28T12:21:58.143Z,10.33
2017-02-28T12:22:58.505Z,10.38
2017-02-28T12:23:58.108Z,10.56
2017-02-28T12:24:58.484Z,10.56
2017-02-28T12:25:58.471Z,10.41
2017-02-28T12:26:58.493Z,10.18
2017-02-28T12:27:58.031Z,10.08
2017-02-28T12:28:58.399Z,9.97
2017-02-28T12:29:58.110Z,10.05
2017-02-28T12:30:58.410Z,10.07
2017-02-28T12:31:58.427Z,10.16
2017-02-28T12:32:57.981Z,10.23
2017-02-28T12:33:57.897Z,10.04
2017-02-28T12:34:58.378Z,10.15
2017-02-28T12:35:57.485Z,10.21
2017-02-28T12:36:58.218Z,10.29
2017-02-28T12:37:57.817Z,10.84
2017-02-28T12:38:58.196Z,11.02
2017-02-28T12:39:57.786Z,10.82
2017-02-28T12:40:57.366Z,10.72
2017-02-28T12:41:57.735Z,10.74
2017-02-28T12:42:58.199Z,10.69
2017-02-28T12:43:58.120Z,10.56
2017-02-28T12:44:57.658Z,10.63
2017-02-28T12:45:57.257Z,10.46
2017-02-28T12:46:57.624Z,10.33
2017-02-28T12:47:58.091Z,10.29
2017-02-28T12:48:58.021Z,10.19
2017-02-28T12:49:57.249Z,10.07
2017-02-28T12:50:57.927Z,10.11
2017-02-28T12:51:57.919Z,9.9
2017-02-28T12:52:57.567Z,10.03
2017-02-28T12:53:57.081Z,9.93
2017-02-28T12:54:57.862Z,10.15
2017-02-28T12:55:57.070Z,9.89
2017-02-28T12:56:57.867Z,9.97
2017-02-28T12:57:57.408Z,10.05
2017-02-28T12:58:57.364Z,10.08
2017-02-28T12:59:57.816Z,10.34
2017-02-28T13:00:57.342Z,10.34
2017-02-28T13:01:57.304Z,10.37
2017-02-28T13:02:57.295Z,10.11
2017-02-28T13:03:57.698Z,10.04
2017-02-28T13:04:57.622Z,10.18
2017-02-28T13:05:57.233Z,10.13
2017-02-28T13:06:57.596Z,10.3
2017-02-28T13:07:57.179Z,10.13
2017-02-28T13:08:57.172Z,10.11
2017-02-28T13:09:57.586Z,10.13
2017-02-28T13:10:57.531Z,10.33
2017-02-28T13:11:57.497Z,10.29
2017-02-28T13:12:57.080Z,10.44
2017-02-28T13:13:57.466Z,10.53
2017-02-28T13:14:57.436Z,10.4
2017-02-28T13:15:57.417Z,10.55
2017-02-28T13:16:56.998Z,10.53
2017-02-28T13:17:57.435Z,10.22